sensor_id;sensor_type;location;lat;lon;timestamp;P1;durP1;ratioP1;P2;durP2;ratioP2
31112;SDS011;17763;48.730;9.136;2022-11-15T00:00:46;8.55;;;4.85;;
31112;SDS011;17763;48.730;9.136;2022-11-15T00:03:17;5.55;;;4.97;;
31112;SDS011;17763;48.730;9.136;2022-11-15T00:05:45;6.07;;;3.95;;
31112;SDS011;17763;48.730;9.136;2022-11-15T00:08:11;6.93;;;4.20;;
31112;SDS011;17763;48.730;9.136;2022-11-15T00:10:37;4.90;;;3.47;;
31112;SDS011;17763;48.730;9.136;2022-11-15T00:13:10;4.50;;;4.10;;
31112;SDS011;17763;48.730;9.136;2022-11-15T00:15:40;5.13;;;3.80;;
31112;SDS011;17763;48.730;9.136;2022-11-15T00:18:06;4.50;;;4.05;;
31112;SDS011;17763;48.730;9.136;2022-11-15T00:20:37;4.25;;;3.78;;
31112;SDS011;17763;48.730;9.136;2022-11-15T00:23:03;4.63;;;4.18;;
31112;SDS011;17763;48.730;9.136;2022-11-15T00:25:29;5.28;;;3.97;;
31112;SDS011;17763;48.730;9.136;2022-11-15T00:27:58;8.45;;;4.40;;
31112;SDS011;17763;48.730;9.136;2022-11-15T00:30:25;4.63;;;4.20;;
31112;SDS011;17763;48.730;9.136;2022-11-15T00:32:53;4.93;;;3.88;;
31112;SDS011;17763;48.730;9.136;2022-11-15T00:35:19;5.88;;;4.40;;
31112;SDS011;17763;48.730;9.136;2022-11-15T00:37:45;6.38;;;4.28;;
31112;SDS011;17763;48.730;9.136;2022-11-15T00:40:12;7.00;;;4.57;;
31112;SDS011;17763;48.730;9.136;2022-11-15T00:42:38;6.15;;;3.90;;
31112;SDS011;17763;48.730;9.136;2022-11-15T00:45:07;4.85;;;4.32;;
31112;SDS011;17763;48.730;9.136;2022-11-15T00:47:35;3.92;;;3.63;;
31112;SDS011;17763;48.730;9.136;2022-11-15T00:50:01;5.63;;;4.05;;
31112;SDS011;17763;48.730;9.136;2022-11-15T00:52:27;3.88;;;3.58;;
31112;SDS011;17763;48.730;9.136;2022-11-15T00:54:53;4.30;;;3.72;;
31112;SDS011;17763;48.730;9.136;2022-11-15T00:57:18;4.78;;;3.80;;
31112;SDS011;17763;48.730;9.136;2022-11-15T00:59:44;5.13;;;3.67;;
31112;SDS011;17763;48.730;9.136;2022-11-15T01:02:09;4.05;;;3.65;;
31112;SDS011;17763;48.730;9.136;2022-11-15T01:04:37;3.97;;;3.30;;
31112;SDS011;17763;48.730;9.136;2022-11-15T01:07:05;3.05;;;2.83;;
31112;SDS011;17763;48.730;9.136;2022-11-15T01:09:31;3.70;;;3.40;;
31112;SDS011;17763;48.730;9.136;2022-11-15T01:12:01;3.53;;;3.03;;
31112;SDS011;17763;48.730;9.136;2022-11-15T01:14:27;4.63;;;3.80;;
31112;SDS011;17763;48.730;9.136;2022-11-15T01:16:52;3.85;;;3.47;;
31112;SDS011;17763;48.730;9.136;2022-11-15T01:19:18;3.50;;;3.20;;
31112;SDS011;17763;48.730;9.136;2022-11-15T01:21:48;5.50;;;3.42;;
31112;SDS011;17763;48.730;9.136;2022-11-15T01:24:14;4.97;;;3.42;;
31112;SDS011;17763;48.730;9.136;2022-11-15T01:26:40;5.10;;;3.42;;
31112;SDS011;17763;48.730;9.136;2022-11-15T01:29:06;4.18;;;3.60;;
31112;SDS011;17763;48.730;9.136;2022-11-15T01:31:32;3.38;;;2.90;;
31112;SDS011;17763;48.730;9.136;2022-11-15T01:34:00;3.60;;;3.30;;
31112;SDS011;17763;48.730;9.136;2022-11-15T01:36:25;2.90;;;2.70;;
31112;SDS011;17763;48.730;9.136;2022-11-15T01:38:54;3.55;;;3.00;;
31112;SDS011;17763;48.730;9.136;2022-11-15T01:41:25;4.22;;;2.78;;
31112;SDS011;17763;48.730;9.136;2022-11-15T01:43:58;6.75;;;3.72;;
31112;SDS011;17763;48.730;9.136;2022-11-15T01:50:00;4.32;;;3.22;;
31112;SDS011;17763;48.730;9.136;2022-11-15T01:52:35;4.28;;;2.92;;
31112;SDS011;17763;48.730;9.136;2022-11-15T01:55:11;3.03;;;2.83;;
31112;SDS011;17763;48.730;9.136;2022-11-15T01:57:39;3.10;;;2.80;;
31112;SDS011;17763;48.730;9.136;2022-11-15T02:00:12;5.63;;;3.83;;
31112;SDS011;17763;48.730;9.136;2022-11-15T02:02:39;3.50;;;3.20;;
31112;SDS011;17763;48.730;9.136;2022-11-15T02:05:05;4.75;;;3.80;;
31112;SDS011;17763;48.730;9.136;2022-11-15T02:07:34;3.55;;;3.10;;
31112;SDS011;17763;48.730;9.136;2022-11-15T02:10:12;3.10;;;2.80;;
31112;SDS011;17763;48.730;9.136;2022-11-15T02:12:43;3.33;;;2.92;;
31112;SDS011;17763;48.730;9.136;2022-11-15T02:15:09;3.97;;;3.00;;
31112;SDS011;17763;48.730;9.136;2022-11-15T02:28:47;3.40;;;3.10;;
31112;SDS011;17763;48.730;9.136;2022-11-15T02:34:30;2.97;;;2.78;;
31112;SDS011;17763;48.730;9.136;2022-11-15T02:37:39;4.00;;;3.20;;
31112;SDS011;17763;48.730;9.136;2022-11-15T02:43:17;6.50;;;4.25;;
31112;SDS011;17763;48.730;9.136;2022-11-15T02:46:01;5.82;;;4.70;;
31112;SDS011;17763;48.730;9.136;2022-11-15T02:48:45;5.95;;;4.60;;
31112;SDS011;17763;48.730;9.136;2022-11-15T02:51:13;6.35;;;5.32;;
31112;SDS011;17763;48.730;9.136;2022-11-15T02:53:39;7.85;;;5.82;;
31112;SDS011;17763;48.730;9.136;2022-11-15T02:56:07;8.60;;;5.40;;
31112;SDS011;17763;48.730;9.136;2022-11-15T02:58:39;8.82;;;5.28;;
31112;SDS011;17763;48.730;9.136;2022-11-15T03:12:15;4.03;;;3.45;;
31112;SDS011;17763;48.730;9.136;2022-11-15T03:17:36;4.78;;;3.75;;
31112;SDS011;17763;48.730;9.136;2022-11-15T03:20:08;3.63;;;3.33;;
31112;SDS011;17763;48.730;9.136;2022-11-15T03:22:37;3.30;;;2.95;;
31112;SDS011;17763;48.730;9.136;2022-11-15T03:25:08;5.47;;;4.13;;
31112;SDS011;17763;48.730;9.136;2022-11-15T03:27:41;3.90;;;3.50;;
31112;SDS011;17763;48.730;9.136;2022-11-15T03:30:15;3.80;;;2.85;;
31112;SDS011;17763;48.730;9.136;2022-11-15T03:32:43;4.43;;;3.47;;
31112;SDS011;17763;48.730;9.136;2022-11-15T03:35:19;4.82;;;3.88;;
31112;SDS011;17763;48.730;9.136;2022-11-15T03:37:53;3.80;;;3.50;;
31112;SDS011;17763;48.730;9.136;2022-11-15T03:40:37;3.50;;;3.20;;
31112;SDS011;17763;48.730;9.136;2022-11-15T03:43:18;3.47;;;3.17;;
31112;SDS011;17763;48.730;9.136;2022-11-15T03:46:01;4.15;;;3.00;;
31112;SDS011;17763;48.730;9.136;2022-11-15T03:48:34;3.58;;;2.97;;
31112;SDS011;17763;48.730;9.136;2022-11-15T03:51:04;3.53;;;3.22;;
31112;SDS011;17763;48.730;9.136;2022-11-15T03:53:33;6.63;;;3.38;;
31112;SDS011;17763;48.730;9.136;2022-11-15T03:55:58;3.75;;;2.75;;
31112;SDS011;17763;48.730;9.136;2022-11-15T03:58:26;4.43;;;3.70;;
31112;SDS011;17763;48.730;9.136;2022-11-15T04:00:52;3.13;;;2.88;;
31112;SDS011;17763;48.730;9.136;2022-11-15T04:03:18;3.28;;;3.08;;
31112;SDS011;17763;48.730;9.136;2022-11-15T04:05:43;3.65;;;2.90;;
31112;SDS011;17763;48.730;9.136;2022-11-15T04:08:09;4.22;;;2.80;;
31112;SDS011;17763;48.730;9.136;2022-11-15T04:10:34;3.08;;;2.78;;
31112;SDS011;17763;48.730;9.136;2022-11-15T04:13:04;3.63;;;3.03;;
31112;SDS011;17763;48.730;9.136;2022-11-15T04:15:30;3.58;;;2.72;;
31112;SDS011;17763;48.730;9.136;2022-11-15T04:17:56;4.22;;;2.50;;
31112;SDS011;17763;48.730;9.136;2022-11-15T04:23:10;2.35;;;2.17;;
31112;SDS011;17763;48.730;9.136;2022-11-15T04:25:59;3.28;;;2.88;;
31112;SDS011;17763;48.730;9.136;2022-11-15T04:28:27;3.22;;;2.78;;
31112;SDS011;17763;48.730;9.136;2022-11-15T04:30:55;4.95;;;2.67;;
31112;SDS011;17763;48.730;9.136;2022-11-15T04:33:21;3.05;;;2.85;;
31112;SDS011;17763;48.730;9.136;2022-11-15T04:35:47;3.92;;;3.03;;
31112;SDS011;17763;48.730;9.136;2022-11-15T04:38:35;2.85;;;2.65;;
31112;SDS011;17763;48.730;9.136;2022-11-15T04:41:03;2.88;;;2.63;;
31112;SDS011;17763;48.730;9.136;2022-11-15T04:43:29;3.80;;;2.72;;
31112;SDS011;17763;48.730;9.136;2022-11-15T04:45:55;3.65;;;2.42;;
31112;SDS011;17763;48.730;9.136;2022-11-15T04:48:20;4.55;;;3.45;;
31112;SDS011;17763;48.730;9.136;2022-11-15T04:50:54;3.60;;;3.30;;
31112;SDS011;17763;48.730;9.136;2022-11-15T04:53:19;3.30;;;2.92;;
31112;SDS011;17763;48.730;9.136;2022-11-15T04:55:45;5.95;;;3.22;;
31112;SDS011;17763;48.730;9.136;2022-11-15T04:58:11;2.78;;;2.47;;
31112;SDS011;17763;48.730;9.136;2022-11-15T05:00:37;3.63;;;3.33;;
31112;SDS011;17763;48.730;9.136;2022-11-15T05:03:05;4.82;;;3.00;;
31112;SDS011;17763;48.730;9.136;2022-11-15T05:05:49;4.40;;;2.92;;
31112;SDS011;17763;48.730;9.136;2022-11-15T05:08:15;3.60;;;3.13;;
31112;SDS011;17763;48.730;9.136;2022-11-15T05:10:41;3.58;;;3.08;;
31112;SDS011;17763;48.730;9.136;2022-11-15T05:13:06;4.93;;;3.17;;
31112;SDS011;17763;48.730;9.136;2022-11-15T05:15:34;9.00;;;3.25;;
31112;SDS011;17763;48.730;9.136;2022-11-15T05:18:00;4.00;;;2.95;;
31112;SDS011;17763;48.730;9.136;2022-11-15T05:20:26;5.20;;;3.55;;
31112;SDS011;17763;48.730;9.136;2022-11-15T05:22:52;3.83;;;3.45;;
31112;SDS011;17763;48.730;9.136;2022-11-15T05:25:19;6.35;;;3.95;;
31112;SDS011;17763;48.730;9.136;2022-11-15T05:27:47;8.60;;;5.25;;
31112;SDS011;17763;48.730;9.136;2022-11-15T05:30:15;7.50;;;5.18;;
31112;SDS011;17763;48.730;9.136;2022-11-15T05:32:44;6.10;;;4.80;;
31112;SDS011;17763;48.730;9.136;2022-11-15T05:35:12;5.32;;;3.97;;
31112;SDS011;17763;48.730;9.136;2022-11-15T05:37:46;5.00;;;3.70;;
31112;SDS011;17763;48.730;9.136;2022-11-15T05:40:15;3.40;;;3.10;;
31112;SDS011;17763;48.730;9.136;2022-11-15T05:42:41;4.18;;;3.30;;
31112;SDS011;17763;48.730;9.136;2022-11-15T05:45:09;3.28;;;2.97;;
31112;SDS011;17763;48.730;9.136;2022-11-15T05:47:35;7.25;;;3.80;;
31112;SDS011;17763;48.730;9.136;2022-11-15T05:50:03;3.53;;;3.20;;
31112;SDS011;17763;48.730;9.136;2022-11-15T05:52:29;7.57;;;3.38;;
31112;SDS011;17763;48.730;9.136;2022-11-15T05:55:01;2.95;;;2.70;;
31112;SDS011;17763;48.730;9.136;2022-11-15T05:57:30;3.38;;;3.05;;
31112;SDS011;17763;48.730;9.136;2022-11-15T05:59:56;3.17;;;2.80;;
31112;SDS011;17763;48.730;9.136;2022-11-15T06:02:22;3.45;;;2.88;;
31112;SDS011;17763;48.730;9.136;2022-11-15T06:04:48;3.42;;;3.13;;
31112;SDS011;17763;48.730;9.136;2022-11-15T06:07:13;4.00;;;3.20;;
31112;SDS011;17763;48.730;9.136;2022-11-15T06:09:39;3.67;;;3.08;;
31112;SDS011;17763;48.730;9.136;2022-11-15T06:12:07;4.32;;;3.00;;
31112;SDS011;17763;48.730;9.136;2022-11-15T06:14:33;5.60;;;3.78;;
31112;SDS011;17763;48.730;9.136;2022-11-15T06:16:58;5.22;;;4.20;;
31112;SDS011;17763;48.730;9.136;2022-11-15T06:19:26;6.55;;;4.55;;
31112;SDS011;17763;48.730;9.136;2022-11-15T06:21:52;10.60;;;5.75;;
31112;SDS011;17763;48.730;9.136;2022-11-15T06:24:18;10.30;;;6.38;;
31112;SDS011;17763;48.730;9.136;2022-11-15T06:26:44;9.82;;;6.07;;
31112;SDS011;17763;48.730;9.136;2022-11-15T06:29:12;8.73;;;7.25;;
31112;SDS011;17763;48.730;9.136;2022-11-15T06:31:38;14.20;;;7.55;;
31112;SDS011;17763;48.730;9.136;2022-11-15T06:34:05;7.95;;;6.63;;
31112;SDS011;17763;48.730;9.136;2022-11-15T06:36:33;7.78;;;6.72;;
31112;SDS011;17763;48.730;9.136;2022-11-15T06:39:00;11.10;;;5.72;;
31112;SDS011;17763;48.730;9.136;2022-11-15T06:41:28;10.27;;;6.05;;
31112;SDS011;17763;48.730;9.136;2022-11-15T06:43:58;9.82;;;4.95;;
31112;SDS011;17763;48.730;9.136;2022-11-15T06:46:26;7.43;;;4.85;;
31112;SDS011;17763;48.730;9.136;2022-11-15T06:48:52;5.72;;;4.53;;
31112;SDS011;17763;48.730;9.136;2022-11-15T06:51:23;8.40;;;4.40;;
31112;SDS011;17763;48.730;9.136;2022-11-15T06:53:49;5.68;;;4.38;;
31112;SDS011;17763;48.730;9.136;2022-11-15T06:56:14;6.95;;;4.57;;
31112;SDS011;17763;48.730;9.136;2022-11-15T06:58:40;5.05;;;4.28;;
31112;SDS011;17763;48.730;9.136;2022-11-15T07:01:07;8.13;;;4.30;;
31112;SDS011;17763;48.730;9.136;2022-11-15T07:03:35;6.22;;;4.22;;
31112;SDS011;17763;48.730;9.136;2022-11-15T07:06:02;10.50;;;4.32;;
31112;SDS011;17763;48.730;9.136;2022-11-15T07:08:30;6.40;;;4.65;;
31112;SDS011;17763;48.730;9.136;2022-11-15T07:10:58;7.30;;;4.78;;
31112;SDS011;17763;48.730;9.136;2022-11-15T07:13:28;5.50;;;4.97;;
31112;SDS011;17763;48.730;9.136;2022-11-15T07:15:58;7.50;;;5.32;;
31112;SDS011;17763;48.730;9.136;2022-11-15T07:18:27;8.57;;;4.93;;
31112;SDS011;17763;48.730;9.136;2022-11-15T07:20:52;8.05;;;5.32;;
31112;SDS011;17763;48.730;9.136;2022-11-15T07:23:18;7.47;;;4.55;;
31112;SDS011;17763;48.730;9.136;2022-11-15T07:25:46;8.50;;;5.45;;
31112;SDS011;17763;48.730;9.136;2022-11-15T07:28:12;9.23;;;4.90;;
31112;SDS011;17763;48.730;9.136;2022-11-15T07:30:40;11.38;;;5.70;;
31112;SDS011;17763;48.730;9.136;2022-11-15T07:33:05;5.60;;;4.85;;
31112;SDS011;17763;48.730;9.136;2022-11-15T07:35:31;11.73;;;6.30;;
31112;SDS011;17763;48.730;9.136;2022-11-15T07:37:58;7.18;;;4.95;;
31112;SDS011;17763;48.730;9.136;2022-11-15T07:40:25;8.50;;;4.78;;
31112;SDS011;17763;48.730;9.136;2022-11-15T07:42:58;8.15;;;5.10;;
31112;SDS011;17763;48.730;9.136;2022-11-15T07:45:25;8.70;;;5.60;;
31112;SDS011;17763;48.730;9.136;2022-11-15T07:47:51;9.32;;;5.32;;
31112;SDS011;17763;48.730;9.136;2022-11-15T07:50:17;8.05;;;5.35;;
31112;SDS011;17763;48.730;9.136;2022-11-15T07:52:46;13.63;;;6.00;;
31112;SDS011;17763;48.730;9.136;2022-11-15T07:55:14;11.90;;;7.18;;
31112;SDS011;17763;48.730;9.136;2022-11-15T07:57:42;11.00;;;6.13;;
31112;SDS011;17763;48.730;9.136;2022-11-15T08:00:10;9.82;;;6.60;;
31112;SDS011;17763;48.730;9.136;2022-11-15T08:02:36;9.68;;;6.18;;
31112;SDS011;17763;48.730;9.136;2022-11-15T08:05:02;13.57;;;6.22;;
31112;SDS011;17763;48.730;9.136;2022-11-15T08:07:28;8.48;;;5.82;;
31112;SDS011;17763;48.730;9.136;2022-11-15T08:09:55;8.75;;;6.57;;
31112;SDS011;17763;48.730;9.136;2022-11-15T08:12:21;14.18;;;7.40;;
31112;SDS011;17763;48.730;9.136;2022-11-15T08:14:47;11.45;;;7.50;;
31112;SDS011;17763;48.730;9.136;2022-11-15T08:17:13;12.68;;;7.28;;
31112;SDS011;17763;48.730;9.136;2022-11-15T08:19:39;7.70;;;6.15;;
31112;SDS011;17763;48.730;9.136;2022-11-15T08:22:04;10.57;;;5.90;;
31112;SDS011;17763;48.730;9.136;2022-11-15T08:24:32;7.38;;;5.20;;
31112;SDS011;17763;48.730;9.136;2022-11-15T08:26:59;7.10;;;4.95;;
31112;SDS011;17763;48.730;9.136;2022-11-15T08:29:25;7.25;;;4.95;;
31112;SDS011;17763;48.730;9.136;2022-11-15T08:31:53;8.45;;;4.90;;
31112;SDS011;17763;48.730;9.136;2022-11-15T08:34:20;5.80;;;5.20;;
31112;SDS011;17763;48.730;9.136;2022-11-15T08:36:48;6.70;;;4.32;;
31112;SDS011;17763;48.730;9.136;2022-11-15T08:39:16;5.10;;;4.47;;
31112;SDS011;17763;48.730;9.136;2022-11-15T08:41:41;9.25;;;4.57;;
31112;SDS011;17763;48.730;9.136;2022-11-15T08:44:09;7.93;;;5.13;;
31112;SDS011;17763;48.730;9.136;2022-11-15T08:46:37;5.18;;;4.68;;
31112;SDS011;17763;48.730;9.136;2022-11-15T08:49:03;5.03;;;4.10;;
31112;SDS011;17763;48.730;9.136;2022-11-15T08:51:28;7.18;;;3.95;;
31112;SDS011;17763;48.730;9.136;2022-11-15T08:53:54;10.73;;;4.32;;
31112;SDS011;17763;48.730;9.136;2022-11-15T08:56:20;7.15;;;4.10;;
31112;SDS011;17763;48.730;9.136;2022-11-15T08:58:45;4.55;;;3.65;;
31112;SDS011;17763;48.730;9.136;2022-11-15T09:01:16;5.43;;;4.00;;
31112;SDS011;17763;48.730;9.136;2022-11-15T09:03:43;6.10;;;3.95;;
31112;SDS011;17763;48.730;9.136;2022-11-15T09:06:09;6.72;;;3.95;;
31112;SDS011;17763;48.730;9.136;2022-11-15T09:08:34;7.38;;;3.83;;
31112;SDS011;17763;48.730;9.136;2022-11-15T09:11:06;5.32;;;3.92;;
31112;SDS011;17763;48.730;9.136;2022-11-15T09:13:36;5.28;;;3.65;;
31112;SDS011;17763;48.730;9.136;2022-11-15T09:16:04;6.68;;;3.20;;
31112;SDS011;17763;48.730;9.136;2022-11-15T09:18:30;3.28;;;2.95;;
31112;SDS011;17763;48.730;9.136;2022-11-15T09:20:57;6.70;;;3.58;;
31112;SDS011;17763;48.730;9.136;2022-11-15T09:23:24;4.75;;;3.70;;
31112;SDS011;17763;48.730;9.136;2022-11-15T09:25:50;4.65;;;3.38;;
31112;SDS011;17763;48.730;9.136;2022-11-15T09:28:23;5.40;;;3.55;;
31112;SDS011;17763;48.730;9.136;2022-11-15T09:30:48;5.80;;;3.75;;
31112;SDS011;17763;48.730;9.136;2022-11-15T09:33:14;3.63;;;3.33;;
31112;SDS011;17763;48.730;9.136;2022-11-15T09:35:40;4.20;;;3.30;;
31112;SDS011;17763;48.730;9.136;2022-11-15T09:38:08;3.95;;;3.22;;
31112;SDS011;17763;48.730;9.136;2022-11-15T09:40:35;3.88;;;3.38;;
31112;SDS011;17763;48.730;9.136;2022-11-15T09:51:39;3.22;;;2.83;;
31112;SDS011;17763;48.730;9.136;2022-11-15T09:54:34;4.72;;;3.08;;
31112;SDS011;17763;48.730;9.136;2022-11-15T09:57:05;5.82;;;3.00;;
31112;SDS011;17763;48.730;9.136;2022-11-15T10:02:24;3.53;;;2.92;;
31112;SDS011;17763;48.730;9.136;2022-11-15T10:05:10;4.32;;;2.90;;
31112;SDS011;17763;48.730;9.136;2022-11-15T10:07:51;3.13;;;2.63;;
31112;SDS011;17763;48.730;9.136;2022-11-15T10:10:29;2.90;;;2.60;;
31112;SDS011;17763;48.730;9.136;2022-11-15T10:13:04;2.33;;;2.13;;
31112;SDS011;17763;48.730;9.136;2022-11-15T10:15:32;3.15;;;2.85;;
31112;SDS011;17763;48.730;9.136;2022-11-15T10:18:06;3.53;;;2.33;;
31112;SDS011;17763;48.730;9.136;2022-11-15T10:20:57;1.92;;;1.75;;
31112;SDS011;17763;48.730;9.136;2022-11-15T10:23:33;3.00;;;1.95;;
31112;SDS011;17763;48.730;9.136;2022-11-15T10:25:59;2.55;;;1.80;;
31112;SDS011;17763;48.730;9.136;2022-11-15T10:28:26;2.13;;;1.95;;
31112;SDS011;17763;48.730;9.136;2022-11-15T10:30:54;2.90;;;1.98;;
31112;SDS011;17763;48.730;9.136;2022-11-15T10:46:32;7.57;;;2.00;;
31112;SDS011;17763;48.730;9.136;2022-11-15T10:49:19;2.78;;;2.10;;
31112;SDS011;17763;48.730;9.136;2022-11-15T10:51:50;4.03;;;2.20;;
31112;SDS011;17763;48.730;9.136;2022-11-15T10:54:30;4.55;;;1.88;;
31112;SDS011;17763;48.730;9.136;2022-11-15T10:57:04;5.18;;;1.98;;
31112;SDS011;17763;48.730;9.136;2022-11-15T10:59:32;2.40;;;1.95;;
31112;SDS011;17763;48.730;9.136;2022-11-15T11:02:00;4.20;;;2.15;;
31112;SDS011;17763;48.730;9.136;2022-11-15T11:04:29;5.75;;;3.50;;
31112;SDS011;17763;48.730;9.136;2022-11-15T11:07:24;3.45;;;2.53;;
31112;SDS011;17763;48.730;9.136;2022-11-15T11:12:42;2.35;;;1.92;;
31112;SDS011;17763;48.730;9.136;2022-11-15T11:15:10;2.42;;;2.22;;
31112;SDS011;17763;48.730;9.136;2022-11-15T11:17:45;2.80;;;2.08;;
31112;SDS011;17763;48.730;9.136;2022-11-15T11:20:25;2.42;;;1.88;;
31112;SDS011;17763;48.730;9.136;2022-11-15T11:25:36;2.88;;;2.10;;
31112;SDS011;17763;48.730;9.136;2022-11-15T11:44:43;3.50;;;2.22;;
31112;SDS011;17763;48.730;9.136;2022-11-15T11:47:23;2.13;;;1.70;;
31112;SDS011;17763;48.730;9.136;2022-11-15T11:49:54;2.00;;;1.83;;
31112;SDS011;17763;48.730;9.136;2022-11-15T11:52:29;3.38;;;2.00;;
31112;SDS011;17763;48.730;9.136;2022-11-15T12:00:22;1.77;;;1.67;;
31112;SDS011;17763;48.730;9.136;2022-11-15T12:05:40;3.63;;;2.13;;
31112;SDS011;17763;48.730;9.136;2022-11-15T12:10:50;3.72;;;2.10;;
31112;SDS011;17763;48.730;9.136;2022-11-15T12:13:25;2.72;;;1.88;;
31112;SDS011;17763;48.730;9.136;2022-11-15T12:18:51;3.67;;;2.78;;
31112;SDS011;17763;48.730;9.136;2022-11-15T12:23:54;2.30;;;2.10;;
31112;SDS011;17763;48.730;9.136;2022-11-15T12:26:26;5.50;;;2.90;;
31112;SDS011;17763;48.730;9.136;2022-11-15T12:29:04;4.18;;;2.60;;
31112;SDS011;17763;48.730;9.136;2022-11-15T12:31:43;2.63;;;2.20;;
31112;SDS011;17763;48.730;9.136;2022-11-15T12:34:29;3.60;;;1.98;;
31112;SDS011;17763;48.730;9.136;2022-11-15T12:36:55;3.95;;;2.55;;
31112;SDS011;17763;48.730;9.136;2022-11-15T12:39:21;3.88;;;2.40;;
31112;SDS011;17763;48.730;9.136;2022-11-15T12:44:58;3.88;;;3.00;;
31112;SDS011;17763;48.730;9.136;2022-11-15T12:47:25;4.35;;;2.75;;
31112;SDS011;17763;48.730;9.136;2022-11-15T12:49:54;2.67;;;2.42;;
31112;SDS011;17763;48.730;9.136;2022-11-15T12:52:20;3.85;;;2.40;;
31112;SDS011;17763;48.730;9.136;2022-11-15T12:54:55;2.47;;;2.22;;
31112;SDS011;17763;48.730;9.136;2022-11-15T12:57:26;4.40;;;2.00;;
31112;SDS011;17763;48.730;9.136;2022-11-15T12:59:53;2.40;;;2.20;;
31112;SDS011;17763;48.730;9.136;2022-11-15T13:22:50;8.38;;;4.57;;
31112;SDS011;17763;48.730;9.136;2022-11-15T13:30:40;8.35;;;4.45;;
31112;SDS011;17763;48.730;9.136;2022-11-15T13:35:55;9.80;;;5.10;;
31112;SDS011;17763;48.730;9.136;2022-11-15T13:38:31;8.65;;;5.45;;
31112;SDS011;17763;48.730;9.136;2022-11-15T13:40:59;10.13;;;6.53;;
31112;SDS011;17763;48.730;9.136;2022-11-15T13:43:36;26.70;;;13.95;;
31112;SDS011;17763;48.730;9.136;2022-11-15T13:46:21;13.77;;;6.22;;
31112;SDS011;17763;48.730;9.136;2022-11-15T13:48:51;9.45;;;5.13;;
31112;SDS011;17763;48.730;9.136;2022-11-15T13:57:17;10.02;;;5.65;;
31112;SDS011;17763;48.730;9.136;2022-11-15T14:02:31;12.70;;;6.43;;
31112;SDS011;17763;48.730;9.136;2022-11-15T14:05:02;13.98;;;6.22;;
31112;SDS011;17763;48.730;9.136;2022-11-15T14:07:44;9.57;;;5.95;;
31112;SDS011;17763;48.730;9.136;2022-11-15T14:12:56;23.55;;;12.60;;
31112;SDS011;17763;48.730;9.136;2022-11-15T14:15:27;13.10;;;7.25;;
31112;SDS011;17763;48.730;9.136;2022-11-15T14:18:00;7.60;;;6.10;;
31112;SDS011;17763;48.730;9.136;2022-11-15T14:20:30;10.85;;;5.65;;
31112;SDS011;17763;48.730;9.136;2022-11-15T14:23:32;12.40;;;6.35;;
31112;SDS011;17763;48.730;9.136;2022-11-15T14:25:55;7.78;;;5.47;;
31112;SDS011;17763;48.730;9.136;2022-11-15T14:30:48;7.50;;;4.97;;
31112;SDS011;17763;48.730;9.136;2022-11-15T14:33:33;8.10;;;4.97;;
31112;SDS011;17763;48.730;9.136;2022-11-15T14:36:33;9.50;;;5.35;;
31112;SDS011;17763;48.730;9.136;2022-11-15T14:38:52;8.65;;;4.88;;
31112;SDS011;17763;48.730;9.136;2022-11-15T14:41:24;5.68;;;5.18;;
31112;SDS011;17763;48.730;9.136;2022-11-15T14:43:51;9.80;;;5.93;;
31112;SDS011;17763;48.730;9.136;2022-11-15T14:46:18;8.40;;;5.57;;
31112;SDS011;17763;48.730;9.136;2022-11-15T14:48:44;8.93;;;5.03;;
31112;SDS011;17763;48.730;9.136;2022-11-15T14:51:14;7.05;;;5.45;;
31112;SDS011;17763;48.730;9.136;2022-11-15T14:53:42;10.80;;;6.28;;
31112;SDS011;17763;48.730;9.136;2022-11-15T14:56:08;10.85;;;7.07;;
31112;SDS011;17763;48.730;9.136;2022-11-15T14:58:34;9.38;;;6.72;;
31112;SDS011;17763;48.730;9.136;2022-11-15T15:01:00;8.60;;;5.53;;
31112;SDS011;17763;48.730;9.136;2022-11-15T15:03:38;6.13;;;4.68;;
31112;SDS011;17763;48.730;9.136;2022-11-15T15:06:03;8.55;;;5.00;;
31112;SDS011;17763;48.730;9.136;2022-11-15T15:08:29;7.10;;;5.00;;
31112;SDS011;17763;48.730;9.136;2022-11-15T15:10:55;10.10;;;4.90;;
31112;SDS011;17763;48.730;9.136;2022-11-15T15:13:21;8.77;;;5.20;;
31112;SDS011;17763;48.730;9.136;2022-11-15T15:15:49;5.70;;;5.20;;
31112;SDS011;17763;48.730;9.136;2022-11-15T15:18:15;6.22;;;5.10;;
31112;SDS011;17763;48.730;9.136;2022-11-15T15:20:42;6.10;;;4.70;;
31112;SDS011;17763;48.730;9.136;2022-11-15T15:23:14;8.82;;;5.13;;
31112;SDS011;17763;48.730;9.136;2022-11-15T15:25:41;6.70;;;4.85;;
31112;SDS011;17763;48.730;9.136;2022-11-15T15:28:08;10.77;;;8.30;;
31112;SDS011;17763;48.730;9.136;2022-11-15T15:30:34;15.93;;;6.95;;
31112;SDS011;17763;48.730;9.136;2022-11-15T15:33:02;9.48;;;5.97;;
31112;SDS011;17763;48.730;9.136;2022-11-15T15:35:29;9.60;;;6.00;;
31112;SDS011;17763;48.730;9.136;2022-11-15T15:37:56;12.60;;;6.72;;
31112;SDS011;17763;48.730;9.136;2022-11-15T15:40:23;8.70;;;6.20;;
31112;SDS011;17763;48.730;9.136;2022-11-15T15:42:49;10.52;;;7.00;;
31112;SDS011;17763;48.730;9.136;2022-11-15T15:45:16;9.05;;;5.57;;
31112;SDS011;17763;48.730;9.136;2022-11-15T15:47:43;9.57;;;6.07;;
31112;SDS011;17763;48.730;9.136;2022-11-15T15:52:47;10.85;;;6.63;;
31112;SDS011;17763;48.730;9.136;2022-11-15T15:55:14;9.02;;;6.75;;
31112;SDS011;17763;48.730;9.136;2022-11-15T15:57:39;8.80;;;5.65;;
31112;SDS011;17763;48.730;9.136;2022-11-15T16:00:08;11.30;;;7.40;;
31112;SDS011;17763;48.730;9.136;2022-11-15T16:02:34;9.27;;;6.57;;
31112;SDS011;17763;48.730;9.136;2022-11-15T16:05:00;13.70;;;6.22;;
31112;SDS011;17763;48.730;9.136;2022-11-15T16:07:26;8.60;;;5.32;;
31112;SDS011;17763;48.730;9.136;2022-11-15T16:09:54;15.15;;;7.30;;
31112;SDS011;17763;48.730;9.136;2022-11-15T16:12:30;16.02;;;9.00;;
31112;SDS011;17763;48.730;9.136;2022-11-15T16:14:59;10.93;;;7.50;;
31112;SDS011;17763;48.730;9.136;2022-11-15T16:17:27;13.27;;;6.78;;
31112;SDS011;17763;48.730;9.136;2022-11-15T16:19:57;10.70;;;6.80;;
31112;SDS011;17763;48.730;9.136;2022-11-15T16:22:25;11.80;;;5.97;;
31112;SDS011;17763;48.730;9.136;2022-11-15T16:24:50;10.73;;;6.30;;
31112;SDS011;17763;48.730;9.136;2022-11-15T16:27:19;8.98;;;6.50;;
31112;SDS011;17763;48.730;9.136;2022-11-15T16:29:46;10.80;;;6.93;;
31112;SDS011;17763;48.730;9.136;2022-11-15T16:32:14;11.10;;;8.75;;
31112;SDS011;17763;48.730;9.136;2022-11-15T16:34:42;12.80;;;7.47;;
31112;SDS011;17763;48.730;9.136;2022-11-15T16:37:13;10.60;;;7.25;;
31112;SDS011;17763;48.730;9.136;2022-11-15T16:39:48;15.27;;;8.77;;
31112;SDS011;17763;48.730;9.136;2022-11-15T16:42:14;13.00;;;9.05;;
31112;SDS011;17763;48.730;9.136;2022-11-15T16:44:40;12.60;;;8.18;;
31112;SDS011;17763;48.730;9.136;2022-11-15T16:47:11;16.17;;;8.40;;
31112;SDS011;17763;48.730;9.136;2022-11-15T16:49:46;12.63;;;9.00;;
31112;SDS011;17763;48.730;9.136;2022-11-15T16:52:13;10.10;;;7.90;;
31112;SDS011;17763;48.730;9.136;2022-11-15T16:54:41;14.57;;;9.23;;
31112;SDS011;17763;48.730;9.136;2022-11-15T16:57:07;15.50;;;9.88;;
31112;SDS011;17763;48.730;9.136;2022-11-15T16:59:34;15.30;;;9.52;;
31112;SDS011;17763;48.730;9.136;2022-11-15T17:02:00;15.48;;;9.10;;
31112;SDS011;17763;48.730;9.136;2022-11-15T17:04:26;23.45;;;13.90;;
31112;SDS011;17763;48.730;9.136;2022-11-15T17:06:56;21.90;;;11.63;;
31112;SDS011;17763;48.730;9.136;2022-11-15T17:09:22;19.80;;;10.70;;
31112;SDS011;17763;48.730;9.136;2022-11-15T17:11:48;14.38;;;8.93;;
31112;SDS011;17763;48.730;9.136;2022-11-15T17:14:15;10.75;;;9.02;;
31112;SDS011;17763;48.730;9.136;2022-11-15T17:16:41;12.40;;;9.43;;
31112;SDS011;17763;48.730;9.136;2022-11-15T17:19:15;16.58;;;10.05;;
31112;SDS011;17763;48.730;9.136;2022-11-15T17:21:45;22.52;;;11.70;;
31112;SDS011;17763;48.730;9.136;2022-11-15T17:24:13;15.95;;;10.73;;
31112;SDS011;17763;48.730;9.136;2022-11-15T17:26:38;19.85;;;12.23;;